createdAt,value
2023-04-15T00:00:18.917Z,69.57
2023-04-15T00:01:22.914Z,69.43
2023-04-15T00:02:25.591Z,69.47
2023-04-15T00:03:28.977Z,69.54
2023-04-15T00:04:34.064Z,69.45
2023-04-15T00:05:36.682Z,69.51
2023-04-15T00:06:39.973Z,69.53
2023-04-15T00:07:42.223Z,69.55
2023-04-15T00:08:44.502Z,69.41
2023-04-15T00:09:46.810Z,69.61
2023-04-15T00:10:49.537Z,69.51
2023-04-15T00:11:51.745Z,69.66
2023-04-15T00:12:54.261Z,69.58
2023-04-15T00:13:56.582Z,69.55
2023-04-15T00:14:59.205Z,69.56
2023-04-15T00:16:02.493Z,69.62
2023-04-15T00:17:05.255Z,69.60
2023-04-15T00:18:08.365Z,69.51
2023-04-15T00:19:10.669Z,69.54
2023-04-15T00:20:13.136Z,69.37
2023-04-15T00:21:16.850Z,69.36
2023-04-15T00:22:19.123Z,69.38
2023-04-15T00:23:21.435Z,69.30
2023-04-15T00:24:24.247Z,69.44
2023-04-15T00:25:26.709Z,69.41
2023-04-15T00:26:29.023Z,69.37
2023-04-15T00:27:31.916Z,69.41
2023-04-15T00:28:34.355Z,69.45
2023-04-15T00:29:36.690Z,69.61
2023-04-15T00:30:39.246Z,69.63
2023-04-15T00:31:42.460Z,69.46
2023-04-15T00:32:44.926Z,69.52
2023-04-15T00:33:47.626Z,69.51
2023-04-15T00:34:50.359Z,69.61
2023-04-15T00:35:52.628Z,69.58
2023-04-15T00:36:54.931Z,69.51
2023-04-15T00:37:57.183Z,69.57
2023-04-15T00:38:59.792Z,69.60
2023-04-15T00:40:02.971Z,69.58
2023-04-15T00:41:05.655Z,69.40
2023-04-15T00:42:08.070Z,69.64
2023-04-15T00:43:10.426Z,69.66
2023-04-15T00:44:12.895Z,69.62
2023-04-15T00:45:15.835Z,69.58
2023-04-15T00:46:20.845Z,69.54
2023-04-15T00:47:23.637Z,69.50
2023-04-15T00:48:27.539Z,69.54
2023-04-15T00:49:30.051Z,69.49
2023-04-15T00:50:33.312Z,69.55
2023-04-15T00:51:37.312Z,69.55
2023-04-15T00:52:40.982Z,69.58
2023-04-15T00:53:43.901Z,69.51
2023-04-15T00:54:46.573Z,69.54
2023-04-15T00:55:49.377Z,69.44
2023-04-15T00:56:51.867Z,69.32
2023-04-15T00:57:54.916Z,69.44
2023-04-15T00:58:59.323Z,69.56
2023-04-15T01:00:02.759Z,69.49
2023-04-15T01:01:05.443Z,69.36
2023-04-15T01:02:08.557Z,69.48
2023-04-15T01:03:11.805Z,69.52
2023-04-15T01:04:14.336Z,69.55
2023-04-15T01:05:18.804Z,69.47
2023-04-15T01:06:22.578Z,69.62
2023-04-15T01:07:24.961Z,69.53
2023-04-15T01:08:31.338Z,69.52
2023-04-15T01:09:34.290Z,69.45
2023-04-15T01:10:37.059Z,69.47
2023-04-15T01:11:40.100Z,69.56
2023-04-15T01:12:44.863Z,69.58
2023-04-15T01:13:48.628Z,69.52
2023-04-15T01:14:51.605Z,69.56
2023-04-15T01:15:54.261Z,69.54
2023-04-15T01:16:56.749Z,69.52
2023-04-15T01:17:59.716Z,69.66
2023-04-15T01:19:02.369Z,69.63
2023-04-15T01:20:05.885Z,69.55
2023-04-15T01:21:08.374Z,69.58
2023-04-15T01:22:11.003Z,69.53
2023-04-15T01:23:14.412Z,69.56
2023-04-15T01:24:18.790Z,69.54
2023-04-15T01:25:33.167Z,69.55
2023-04-15T01:26:38.075Z,69.56
2023-04-15T01:27:42.809Z,69.54
2023-04-15T01:28:45.535Z,69.47
2023-04-15T01:29:48.426Z,69.41
2023-04-15T01:30:50.654Z,69.38
2023-04-15T01:31:55.224Z,69.53
2023-04-15T01:32:57.692Z,69.54
2023-04-15T01:34:00.205Z,69.59
2023-04-15T01:35:03.077Z,69.45
2023-04-15T01:36:07.344Z,69.52
2023-04-15T01:37:09.598Z,69.64
2023-04-15T01:38:12.671Z,69.50
2023-04-15T01:39:15.571Z,69.51
2023-04-15T01:40:17.885Z,69.53
2023-04-15T01:41:29.242Z,69.70
2023-04-15T01:42:32.863Z,69.56
2023-04-15T01:43:39.103Z,69.64
2023-04-15T01:44:41.504Z,69.60
2023-04-15T01:45:47.443Z,69.69
2023-04-15T01:46:49.822Z,69.64
2023-04-15T01:47:52.174Z,69.77
2023-04-15T01:48:54.543Z,69.77
2023-04-15T01:49:57.088Z,69.70
2023-04-15T01:51:00.833Z,69.77
2023-04-15T01:52:03.201Z,69.57
2023-04-15T01:53:05.529Z,69.68
2023-04-15T01:54:08.536Z,69.79
2023-04-15T01:55:11.797Z,69.85
2023-04-15T01:56:15.876Z,69.73
2023-04-15T01:57:19.410Z,69.74
2023-04-15T01:58:23.754Z,69.75
2023-04-15T01:59:26.761Z,69.71
2023-04-15T02:00:32.797Z,69.71
2023-04-15T02:01:37.162Z,69.89
2023-04-15T02:02:39.709Z,69.92
2023-04-15T02:03:43.750Z,69.87
2023-04-15T02:04:46.114Z,69.88
2023-04-15T02:05:48.417Z,69.85
2023-04-15T02:06:50.677Z,69.85
2023-04-15T02:07:53.926Z,69.92
2023-04-15T02:08:56.176Z,69.83
2023-04-15T02:09:58.753Z,69.86
2023-04-15T02:11:01.548Z,69.78
2023-04-15T02:12:04.481Z,69.78
2023-04-15T02:13:06.881Z,69.74
2023-04-15T02:14:09.805Z,69.78
2023-04-15T02:15:12.102Z,69.80
2023-04-15T02:16:21.568Z,69.81
2023-04-15T02:17:23.868Z,69.96
2023-04-15T02:18:26.643Z,69.98
2023-04-15T02:19:29.154Z,69.95
2023-04-15T02:20:32.548Z,69.94
2023-04-15T02:21:35.688Z,70.02
2023-04-15T02:22:38.496Z,69.95
2023-04-15T02:23:40.834Z,69.90
2023-04-15T02:24:43.379Z,70.06
2023-04-15T02:25:53.372Z,70.09
2023-04-15T02:26:56.985Z,70.03
2023-04-15T02:27:59.374Z,70.03
2023-04-15T02:29:02.656Z,69.98
2023-04-15T02:30:05.709Z,70.00
2023-04-15T02:31:10.308Z,70.00
2023-04-15T02:32:13.772Z,69.98
2023-04-15T02:33:16.714Z,70.02
2023-04-15T02:34:19.073Z,70.06
2023-04-15T02:35:21.418Z,70.10
2023-04-15T02:36:24.198Z,70.07
2023-04-15T02:37:28.825Z,70.05
2023-04-15T02:38:32.273Z,70.04
2023-04-15T02:39:34.767Z,70.04
2023-04-15T02:40:37.585Z,70.12
2023-04-15T02:41:40.597Z,70.05
2023-04-15T02:42:44.467Z,70.09
2023-04-15T02:43:49.105Z,70.16
2023-04-15T02:44:51.554Z,70.20
2023-04-15T02:45:56.089Z,70.20
2023-04-15T02:46:59.108Z,70.18
2023-04-15T02:48:06.546Z,70.15
2023-04-15T02:49:08.958Z,70.17
2023-04-15T02:50:13.369Z,70.16
2023-04-15T02:51:20.129Z,70.25
2023-04-15T02:52:22.590Z,70.20
2023-04-15T02:53:26.323Z,70.24
2023-04-15T02:54:29.030Z,70.22
2023-04-15T02:55:32.219Z,70.32
2023-04-15T02:56:34.551Z,70.36
2023-04-15T02:57:37.646Z,70.38
2023-04-15T02:58:43.437Z,70.38
2023-04-15T02:59:45.679Z,70.33
2023-04-15T03:00:48.066Z,70.37
2023-04-15T03:01:50.401Z,70.43
2023-04-15T03:02:57.764Z,70.32
2023-04-15T03:04:00.148Z,70.21
2023-04-15T03:05:02.961Z,70.27
2023-04-15T03:06:05.534Z,70.25
2023-04-15T03:07:08.098Z,70.21
2023-04-15T03:08:10.921Z,70.24
2023-04-15T03:09:13.208Z,70.27
2023-04-15T03:10:15.785Z,70.33
2023-04-15T03:11:18.954Z,70.25
2023-04-15T03:12:21.273Z,70.33
2023-04-15T03:13:24.767Z,70.14
2023-04-15T03:14:27.474Z,70.12
2023-04-15T03:15:30.264Z,70.20
2023-04-15T03:16:32.510Z,70.09
2023-04-15T03:17:34.885Z,70.11
2023-04-15T03:18:38.017Z,70.12
2023-04-15T03:19:40.620Z,70.14
2023-04-15T03:20:43.313Z,70.27
2023-04-15T03:21:46.055Z,70.24
2023-04-15T03:22:49.381Z,70.38
2023-04-15T03:23:51.896Z,70.28
2023-04-15T03:24:54.177Z,70.30
2023-04-15T03:25:58.197Z,70.29
2023-04-15T03:27:02.233Z,70.38
2023-04-15T03:28:04.993Z,70.28
2023-04-15T03:29:08.464Z,70.32
2023-04-15T03:30:11.460Z,70.36
2023-04-15T03:31:14.507Z,70.28
2023-04-15T03:32:16.956Z,70.28
2023-04-15T03:33:19.240Z,70.34
2023-04-15T03:34:21.910Z,70.26
2023-04-15T03:35:24.293Z,70.41
2023-04-15T03:36:27.619Z,70.36
2023-04-15T03:37:29.861Z,70.46
2023-04-15T03:38:32.116Z,70.32
2023-04-15T03:39:35.068Z,70.20
2023-04-15T03:40:37.361Z,70.43
2023-04-15T03:41:39.681Z,70.31
2023-04-15T03:42:43.071Z,70.22
2023-04-15T03:43:45.382Z,70.21
2023-04-15T03:44:47.694Z,70.31
2023-04-15T03:45:50.029Z,70.26
2023-04-15T03:46:52.425Z,70.46
2023-04-15T03:47:55.871Z,70.43
2023-04-15T03:48:58.142Z,70.39
2023-04-15T03:50:00.634Z,70.42
2023-04-15T03:51:02.927Z,70.43
2023-04-15T03:52:05.819Z,70.48
2023-04-15T03:53:08.096Z,70.44
2023-04-15T03:54:10.386Z,70.47
2023-04-15T03:55:12.682Z,70.43
2023-04-15T03:56:14.961Z,70.42
2023-04-15T03:57:17.200Z,70.44
2023-04-15T03:58:19.512Z,70.44
2023-04-15T03:59:21.783Z,70.44
2023-04-15T04:00:24.064Z,70.49
2023-04-15T04:01:26.446Z,70.52
2023-04-15T04:02:28.873Z,70.40
2023-04-15T04:03:31.405Z,70.51
2023-04-15T04:04:34.526Z,70.39
2023-04-15T04:05:39.158Z,70.54
2023-04-15T04:06:41.677Z,70.55
2023-04-15T04:07:44.046Z,70.46
2023-04-15T04:08:48.416Z,70.45
2023-04-15T04:09:50.834Z,70.56
2023-04-15T04:10:53.132Z,70.49
2023-04-15T04:11:56.414Z,70.53
2023-04-15T04:12:58.697Z,70.63
2023-04-15T04:14:00.988Z,70.45
2023-04-15T04:15:03.674Z,70.60
2023-04-15T04:16:07.325Z,70.56
2023-04-15T04:17:09.818Z,70.53
2023-04-15T04:18:12.682Z,70.66
2023-04-15T04:19:15.231Z,70.65
2023-04-15T04:20:17.535Z,70.66
2023-04-15T04:21:20.213Z,70.57
2023-04-15T04:22:24.386Z,70.65
2023-04-15T04:23:27.180Z,70.78
2023-04-15T04:24:29.534Z,70.69
2023-04-15T04:25:32.381Z,70.82
2023-04-15T04:26:34.723Z,70.78
2023-04-15T04:27:37.153Z,70.76
2023-04-15T04:28:40.770Z,70.83
2023-04-15T04:29:43.493Z,70.73
2023-04-15T04:30:45.847Z,70.77
2023-04-15T04:31:48.911Z,70.81
2023-04-15T04:32:51.876Z,70.71
2023-04-15T04:33:54.182Z,70.64
2023-04-15T04:34:56.722Z,70.78
2023-04-15T04:35:59.148Z,70.73
2023-04-15T04:37:01.563Z,70.74
2023-04-15T04:38:04.468Z,70.73
2023-04-15T04:39:06.682Z,70.68
2023-04-15T04:40:09.792Z,70.82
2023-04-15T04:41:12.189Z,70.82
2023-04-15T04:42:14.496Z,70.97
2023-04-15T04:43:16.932Z,70.83
2023-04-15T04:44:19.192Z,70.82
2023-04-15T04:45:21.809Z,70.83
2023-04-15T04:46:24.145Z,70.79
2023-04-15T04:47:26.586Z,70.79
2023-04-15T04:48:31.209Z,70.96
2023-04-15T04:49:33.849Z,71.00
2023-04-15T04:50:38.093Z,71.02
2023-04-15T04:51:40.473Z,71.09
2023-04-15T04:52:42.779Z,71.06
2023-04-15T04:53:45.099Z,71.02
2023-04-15T04:54:47.904Z,70.95
2023-04-15T04:55:50.267Z,71.03
2023-04-15T04:56:52.530Z,71.08
2023-04-15T04:57:54.795Z,71.07
2023-04-15T04:58:57.055Z,70.97
2023-04-15T04:59:59.353Z,70.87
2023-04-15T05:01:01.775Z,70.95
2023-04-15T05:02:04.274Z,70.94
2023-04-15T05:03:07.351Z,70.84
2023-04-15T05:04:10.007Z,71.10
2023-04-15T05:05:13.487Z,71.02
2023-04-15T05:06:15.882Z,71.04
2023-04-15T05:07:18.202Z,71.07
2023-04-15T05:08:20.907Z,70.99
2023-04-15T05:09:23.207Z,71.02
2023-04-15T05:10:25.791Z,70.97
2023-04-15T05:11:28.564Z,71.08
2023-04-15T05:12:30.871Z,71.16
2023-04-15T05:13:33.288Z,71.13
2023-04-15T05:14:35.566Z,70.99
2023-04-15T05:15:40.009Z,71.01
2023-04-15T05:16:42.516Z,71.11
2023-04-15T05:17:44.943Z,71.06
2023-04-15T05:18:47.550Z,71.13
2023-04-15T05:19:49.786Z,71.21
2023-04-15T05:20:52.104Z,71.17
2023-04-15T05:21:54.447Z,71.10
2023-04-15T05:22:56.716Z,71.13
2023-04-15T05:23:59.066Z,71.34
2023-04-15T05:25:01.450Z,71.26
2023-04-15T05:26:03.964Z,71.22
2023-04-15T05:27:06.266Z,71.14
2023-04-15T05:28:08.816Z,71.14
2023-04-15T05:29:11.132Z,71.17
2023-04-15T05:30:13.804Z,71.18
2023-04-15T05:31:16.874Z,71.31
2023-04-15T05:32:19.297Z,71.24
2023-04-15T05:33:21.856Z,71.39
2023-04-15T05:34:24.204Z,71.48
2023-04-15T05:35:26.522Z,71.48
2023-04-15T05:36:29.015Z,71.48
2023-04-15T05:37:31.481Z,71.48
2023-04-15T05:38:33.768Z,71.38
2023-04-15T05:39:36.421Z,71.48
2023-04-15T05:40:41.947Z,71.48
2023-04-15T05:41:44.940Z,71.63
2023-04-15T05:42:47.197Z,71.44
2023-04-15T05:43:49.555Z,71.48
2023-04-15T05:44:52.176Z,71.47
2023-04-15T05:45:54.530Z,71.55
2023-04-15T05:46:57.104Z,71.64
2023-04-15T05:47:59.459Z,71.51
2023-04-15T05:49:02.731Z,71.57
2023-04-15T05:50:05.612Z,71.44
2023-04-15T05:51:08.152Z,71.64
2023-04-15T05:52:10.556Z,71.54
2023-04-15T05:53:13.059Z,71.40
2023-04-15T05:54:15.475Z,71.51
2023-04-15T05:55:17.774Z,71.31
2023-04-15T05:56:20.897Z,71.62
2023-04-15T05:57:23.360Z,71.57
2023-04-15T05:58:25.599Z,71.55
2023-04-15T05:59:28.652Z,71.53
2023-04-15T06:00:31.417Z,71.52
2023-04-15T06:01:34.511Z,71.58
2023-04-15T06:02:37.411Z,71.39
2023-04-15T06:03:39.987Z,71.59
2023-04-15T06:04:42.882Z,71.51
2023-04-15T06:05:45.776Z,71.54
2023-04-15T06:06:48.364Z,71.45
2023-04-15T06:07:50.773Z,71.56
2023-04-15T06:08:53.507Z,71.51
2023-04-15T06:09:56.047Z,71.50
2023-04-15T06:10:59.122Z,71.61
2023-04-15T06:12:02.610Z,71.51
2023-04-15T06:13:04.933Z,71.62
2023-04-15T06:14:07.304Z,71.56
2023-04-15T06:15:12.736Z,71.66
2023-04-15T06:16:15.151Z,71.68
2023-04-15T06:17:18.788Z,71.68
2023-04-15T06:18:21.093Z,71.66
2023-04-15T06:19:23.396Z,71.63
2023-04-15T06:20:25.824Z,71.69
2023-04-15T06:21:28.288Z,71.72
2023-04-15T06:22:31.169Z,71.78
2023-04-15T06:23:36.822Z,71.75
2023-04-15T06:24:39.249Z,71.65
2023-04-15T06:25:41.802Z,71.70
2023-04-15T06:26:44.075Z,71.72
2023-04-15T06:27:46.631Z,71.61
2023-04-15T06:28:49.018Z,71.69
2023-04-15T06:29:51.294Z,71.61
2023-04-15T06:30:54.260Z,71.72
2023-04-15T06:31:57.044Z,71.57
2023-04-15T06:32:59.437Z,71.54
2023-04-15T06:34:01.888Z,71.67
2023-04-15T06:35:04.567Z,71.50
2023-04-15T06:36:06.995Z,71.62
2023-04-15T06:37:11.301Z,71.55
2023-04-15T06:38:14.579Z,71.49
2023-04-15T06:39:18.041Z,71.34
2023-04-15T06:40:20.368Z,71.32
2023-04-15T06:41:22.836Z,71.18
2023-04-15T06:42:25.144Z,71.12
2023-04-15T06:43:27.369Z,71.23
2023-04-15T06:44:31.217Z,71.25
2023-04-15T06:45:35.149Z,71.12
2023-04-15T06:46:37.386Z,71.10
2023-04-15T06:47:39.718Z,71.21
2023-04-15T06:48:41.942Z,71.20
2023-04-15T06:49:45.098Z,71.09
2023-04-15T06:50:47.716Z,71.15
2023-04-15T06:51:51.526Z,71.33
2023-04-15T06:52:58.158Z,71.29
2023-04-15T06:54:00.426Z,71.28
2023-04-15T06:55:02.956Z,71.20
2023-04-15T06:56:05.852Z,71.15
2023-04-15T06:57:09.469Z,71.09
2023-04-15T06:58:11.719Z,71.21
2023-04-15T06:59:14.503Z,71.15
2023-04-15T07:00:17.781Z,71.29
2023-04-15T07:01:20.309Z,71.18
2023-04-15T07:02:22.971Z,71.15
2023-04-15T07:03:25.374Z,71.09
2023-04-15T07:04:28.218Z,71.07
2023-04-15T07:05:31.260Z,70.96
2023-04-15T07:06:34.039Z,70.98
2023-04-15T07:07:37.203Z,70.95
2023-04-15T07:08:39.466Z,70.90
2023-04-15T07:09:41.982Z,70.94
2023-04-15T07:10:44.267Z,70.96
2023-04-15T07:11:46.526Z,70.74
2023-04-15T07:12:49.418Z,70.73
2023-04-15T07:13:51.766Z,70.67
2023-04-15T07:14:54.040Z,70.64
2023-04-15T07:15:56.347Z,70.60
2023-04-15T07:16:58.640Z,70.58
2023-04-15T07:21:43.352Z,70.45
2023-04-15T07:22:45.556Z,70.25
2023-04-15T07:23:47.936Z,70.26
2023-04-15T07:24:50.265Z,70.25
2023-04-15T07:25:52.703Z,70.21
2023-04-15T07:26:59.478Z,70.12
2023-04-15T07:28:03.129Z,70.02
2023-04-15T07:29:05.354Z,70.14
2023-04-15T07:30:08.248Z,70.22
2023-04-15T07:31:10.869Z,70.02
2023-04-15T07:32:13.314Z,70.00
2023-04-15T07:33:15.881Z,69.90
2023-04-15T07:34:20.121Z,69.79
2023-04-15T07:35:23.565Z,69.70
2023-04-15T07:36:25.996Z,69.81
2023-04-15T07:37:28.612Z,69.73
2023-04-15T07:38:30.895Z,69.76
2023-04-15T07:39:34.149Z,69.54
2023-04-15T07:40:36.439Z,69.33
2023-04-15T07:41:38.869Z,69.31
2023-04-15T07:42:41.460Z,69.23
2023-04-15T07:43:45.488Z,69.27
2023-04-15T07:44:47.896Z,69.26
2023-04-15T07:45:52.261Z,69.16
2023-04-15T07:46:54.667Z,69.12
2023-04-15T07:49:25.670Z,68.95
2023-04-15T07:50:35.547Z,69.00
2023-04-15T07:53:09.821Z,68.61
2023-04-15T07:54:12.068Z,68.49
2023-04-15T07:55:14.579Z,68.39
2023-04-15T07:56:16.995Z,68.24
2023-04-15T07:57:19.644Z,68.16
2023-04-15T07:58:22.084Z,68.31
2023-04-15T07:59:24.414Z,68.45
2023-04-15T08:00:27.148Z,68.38
2023-04-15T08:01:29.391Z,68.34
2023-04-15T08:02:32.105Z,68.13
2023-04-15T08:03:34.862Z,68.12
2023-04-15T08:04:37.930Z,68.26
2023-04-15T08:05:40.446Z,68.10
2023-04-15T08:06:42.736Z,68.08
2023-04-15T08:07:45.334Z,68.13
2023-04-15T08:08:48.844Z,68.05
2023-04-15T08:09:51.716Z,68.22
2023-04-15T08:10:53.978Z,68.05
2023-04-15T08:11:57.237Z,68.24
2023-04-15T08:13:00.100Z,68.05
2023-04-15T08:14:02.480Z,68.12
2023-04-15T08:15:05.123Z,68.13
2023-04-15T08:16:19.853Z,67.96
2023-04-15T08:17:22.422Z,67.99
2023-04-15T08:18:24.742Z,67.99
2023-04-15T08:19:27.138Z,67.92
2023-04-15T08:20:30.110Z,67.61
2023-04-15T08:21:32.680Z,67.55
2023-04-15T08:22:34.954Z,67.46
2023-04-15T08:23:37.429Z,67.48
2023-04-15T08:24:40.410Z,67.48
2023-04-15T08:25:42.876Z,67.34
2023-04-15T08:26:45.165Z,67.30
2023-04-15T08:27:47.669Z,67.32
2023-04-15T08:28:50.224Z,67.46
2023-04-15T08:29:52.557Z,67.21
2023-04-15T08:30:54.838Z,67.21
2023-04-15T08:31:57.097Z,67.27
2023-04-15T08:32:59.548Z,67.30
2023-04-15T08:34:02.291Z,67.32
2023-04-15T08:35:04.919Z,67.43
2023-04-15T08:36:07.971Z,67.50
2023-04-15T08:37:11.486Z,67.42
2023-04-15T08:38:16.262Z,67.40
2023-04-15T08:39:18.944Z,67.52
2023-04-15T08:40:25.137Z,67.32
2023-04-15T08:41:32.264Z,67.24
2023-04-15T08:42:42.908Z,67.18
2023-04-15T08:43:59.179Z,67.13
2023-04-15T08:45:05.043Z,67.20
2023-04-15T08:46:09.542Z,67.04
2023-04-15T08:47:14.566Z,66.92
2023-04-15T08:48:17.491Z,66.96
2023-04-15T08:49:22.402Z,66.57
2023-04-15T08:50:26.517Z,66.44
2023-04-15T08:51:29.239Z,66.35
2023-04-15T08:52:31.823Z,66.29
2023-04-15T08:53:34.422Z,66.00
2023-04-15T08:54:37.778Z,65.92
2023-04-15T08:55:46.080Z,65.69
2023-04-15T08:56:49.036Z,65.53
2023-04-15T08:57:51.594Z,65.67
2023-04-15T08:58:54.053Z,65.54
2023-04-15T08:59:57.557Z,65.61
2023-04-15T09:00:59.913Z,65.52
2023-04-15T09:02:03.996Z,65.46
2023-04-15T09:03:09.650Z,65.37
2023-04-15T09:04:12.788Z,65.28
2023-04-15T09:05:15.286Z,65.20
2023-04-15T09:06:18.306Z,65.40
2023-04-15T09:07:20.831Z,65.14
2023-04-15T09:08:23.090Z,65.23
2023-04-15T09:09:25.502Z,65.10
2023-04-15T09:10:29.729Z,65.08
2023-04-15T09:11:32.314Z,65.15
2023-04-15T09:12:36.544Z,65.13
2023-04-15T09:13:39.132Z,65.15
2023-04-15T09:14:42.498Z,65.21
2023-04-15T09:15:45.225Z,65.17
2023-04-15T09:17:13.746Z,65.14
2023-04-15T09:18:29.469Z,65.02
2023-04-15T09:19:33.827Z,64.97
2023-04-15T09:20:41.817Z,64.92
2023-04-15T09:21:47.813Z,65.03
2023-04-15T09:22:51.307Z,64.87
2023-04-15T09:24:03.151Z,65.10
2023-04-15T09:25:33.439Z,65.17
2023-04-15T09:26:40.434Z,64.97
2023-04-15T09:27:53.949Z,64.81
2023-04-15T09:29:04.096Z,64.92
2023-04-15T09:30:09.142Z,64.49
2023-04-15T09:31:11.504Z,64.43
2023-04-15T09:32:15.210Z,64.47
2023-04-15T09:33:17.570Z,64.42
2023-04-15T09:34:20.189Z,64.38
2023-04-15T09:35:23.918Z,64.40
2023-04-15T09:36:29.861Z,64.25
2023-04-15T09:37:36.830Z,64.34
2023-04-15T09:38:55.931Z,64.36
2023-04-15T09:39:58.234Z,64.06
2023-04-15T09:41:00.547Z,64.19
2023-04-15T09:42:07.377Z,63.66
2023-04-15T09:43:13.195Z,63.62
2023-04-15T09:44:27.704Z,63.57
2023-04-15T09:45:30.254Z,63.61
2023-04-15T09:46:45.673Z,63.58
2023-04-15T09:47:48.213Z,63.34
2023-04-15T09:49:08.951Z,63.22
2023-04-15T09:50:11.288Z,63.02
2023-04-15T09:51:15.764Z,62.91
2023-04-15T09:52:18.088Z,62.59
2023-04-15T09:53:21.970Z,62.44
2023-04-15T09:54:24.236Z,62.07
2023-04-15T09:55:26.843Z,61.96
2023-04-15T09:56:37.987Z,62.08
2023-04-15T09:57:45.342Z,61.82
2023-04-15T09:58:57.248Z,61.66
2023-04-15T09:59:59.789Z,61.61
2023-04-15T10:01:06.059Z,61.38
2023-04-15T10:02:08.429Z,61.28
2023-04-15T10:03:11.888Z,61.17
2023-04-15T10:04:16.192Z,61.01
2023-04-15T10:05:18.786Z,60.52
2023-04-15T10:06:23.540Z,60.17
2023-04-15T10:07:26.447Z,59.93
2023-04-15T10:08:30.370Z,59.98
2023-04-15T10:09:34.350Z,59.83
2023-04-15T10:10:37.308Z,59.86
2023-04-15T10:11:40.268Z,59.98
2023-04-15T10:12:43.991Z,59.90
2023-04-15T10:13:49.341Z,59.91
2023-04-15T10:14:59.697Z,59.87
2023-04-15T10:16:12.295Z,59.48
2023-04-15T10:17:20.140Z,59.48
2023-04-15T10:18:25.576Z,59.44
2023-04-15T10:19:29.668Z,59.38
2023-04-15T10:20:32.072Z,59.42
2023-04-15T10:21:34.642Z,59.48
2023-04-15T10:22:38.091Z,59.55
2023-04-15T10:23:41.112Z,59.44
2023-04-15T10:24:45.767Z,59.46
2023-04-15T10:25:51.695Z,59.68
2023-04-15T10:26:54.658Z,59.68
2023-04-15T10:27:57.996Z,59.68
2023-04-15T10:29:01.488Z,59.77
2023-04-15T10:30:04.094Z,59.57
2023-04-15T10:31:07.421Z,59.79
2023-04-15T10:32:11.172Z,59.86
2023-04-15T10:33:14.680Z,59.97
2023-04-15T10:34:18.630Z,59.87
2023-04-15T10:35:22.507Z,59.80
2023-04-15T10:36:25.222Z,59.74
2023-04-15T10:37:39.003Z,59.79
2023-04-15T10:38:43.494Z,59.78
2023-04-15T10:39:45.911Z,59.93
2023-04-15T10:40:50.408Z,59.89
2023-04-15T10:42:19.479Z,60.09
2023-04-15T10:43:28.733Z,59.98
2023-04-15T10:44:32.336Z,60.23
2023-04-15T10:45:37.373Z,60.10
2023-04-15T10:46:46.016Z,60.17
2023-04-15T10:47:53.648Z,60.20
2023-04-15T10:48:56.528Z,60.36
2023-04-15T10:50:01.157Z,60.50
2023-04-15T10:51:04.006Z,60.53
2023-04-15T10:52:08.800Z,60.34
2023-04-15T10:53:12.114Z,60.47
2023-04-15T10:54:33.820Z,60.48
2023-04-15T10:55:36.203Z,60.69
2023-04-15T10:56:38.865Z,60.59
2023-04-15T10:57:42.522Z,60.77
2023-04-15T10:58:45.777Z,60.81
2023-04-15T11:00:18.018Z,60.87
2023-04-15T11:01:23.725Z,61.02
2023-04-15T11:02:48.783Z,61.17
2023-04-15T11:03:51.993Z,61.07
2023-04-15T11:04:56.622Z,61.35
2023-04-15T11:05:59.037Z,61.26
2023-04-15T11:07:07.714Z,61.15
2023-04-15T11:08:11.123Z,61.07
2023-04-15T11:09:32.604Z,61.26
2023-04-15T11:10:34.780Z,61.16
2023-04-15T11:12:09.066Z,61.33
2023-04-15T11:13:22.111Z,61.29
2023-04-15T11:14:24.485Z,61.42
2023-04-15T11:15:32.750Z,61.29
2023-04-15T11:16:43.278Z,61.53
2023-04-15T11:17:46.482Z,61.82
2023-04-15T11:18:56.360Z,61.63
2023-04-15T11:20:01.621Z,61.55
2023-04-15T11:21:07.199Z,61.62
2023-04-15T11:22:12.835Z,61.38
2023-04-15T11:23:18.069Z,61.59
2023-04-15T11:24:29.132Z,61.68
2023-04-15T11:25:35.535Z,61.61
2023-04-15T11:26:38.360Z,61.67
2023-04-15T11:27:40.690Z,61.87
2023-04-15T11:28:45.344Z,61.78
2023-04-15T11:29:47.603Z,61.60
2023-04-15T11:30:49.906Z,61.73
2023-04-15T11:31:52.445Z,61.69
2023-04-15T11:32:58.602Z,61.50
2023-04-15T11:34:02.617Z,61.34
2023-04-15T11:35:05.152Z,61.17
2023-04-15T11:36:08.128Z,61.06
2023-04-15T11:37:10.659Z,60.97
2023-04-15T11:38:14.474Z,60.86
2023-04-15T11:39:16.960Z,60.91
2023-04-15T11:40:30.673Z,60.78
2023-04-15T11:41:33.027Z,60.80
2023-04-15T11:42:48.629Z,60.71
2023-04-15T11:43:52.791Z,60.59
2023-04-15T11:45:11.595Z,60.79
2023-04-15T11:46:13.927Z,60.73
2023-04-15T11:47:23.987Z,60.51
2023-04-15T11:48:31.357Z,60.64
2023-04-15T11:49:40.373Z,60.39
2023-04-15T11:50:44.021Z,60.45
2023-04-15T11:51:46.487Z,60.14
2023-04-15T11:52:58.816Z,60.11
2023-04-15T11:54:01.400Z,60.36
2023-04-15T11:55:04.526Z,60.22
2023-04-15T11:56:08.990Z,60.23
2023-04-15T11:57:11.235Z,60.11
2023-04-15T11:58:17.261Z,59.82
2023-04-15T11:59:19.527Z,59.81
2023-04-15T12:00:21.955Z,59.85
2023-04-15T12:01:40.077Z,59.73
2023-04-15T12:02:42.479Z,59.69
2023-04-15T12:03:50.225Z,59.91
2023-04-15T12:05:04.271Z,59.97
2023-04-15T12:06:26.056Z,59.91
2023-04-15T12:07:29.028Z,59.71
2023-04-15T12:08:53.203Z,59.59
2023-04-15T12:09:56.965Z,59.64
2023-04-15T12:10:59.832Z,59.66
2023-04-15T12:12:03.429Z,59.36
2023-04-15T12:13:07.629Z,59.44
2023-04-15T12:14:11.733Z,59.44
2023-04-15T12:15:14.237Z,59.80
2023-04-15T12:16:20.169Z,59.38
2023-04-15T12:17:24.174Z,59.66
2023-04-15T12:18:26.520Z,59.48
2023-04-15T12:19:35.404Z,59.44
2023-04-15T12:20:45.442Z,59.46
2023-04-15T12:21:48.962Z,59.28
2023-04-15T12:22:51.259Z,59.50
2023-04-15T12:23:58.371Z,59.12
2023-04-15T12:25:02.915Z,58.85
2023-04-15T12:26:07.258Z,58.75
2023-04-15T12:27:15.498Z,58.94
2023-04-15T12:28:18.775Z,58.72
2023-04-15T12:29:28.219Z,58.75
2023-04-15T12:30:30.574Z,58.74
2023-04-15T12:31:33.558Z,58.62
2023-04-15T12:32:36.634Z,58.64
2023-04-15T12:33:40.106Z,58.67
2023-04-15T12:34:45.301Z,58.75
2023-04-15T12:35:49.000Z,58.73
2023-04-15T12:36:51.232Z,58.88
2023-04-15T12:37:53.490Z,58.96
2023-04-15T12:38:56.284Z,59.02
2023-04-15T12:39:58.626Z,58.81
2023-04-15T12:41:00.985Z,58.68
2023-04-15T12:42:04.818Z,58.85
2023-04-15T12:43:07.220Z,58.62
2023-04-15T12:44:09.531Z,58.66
2023-04-15T12:45:11.775Z,58.63
2023-04-15T12:46:14.208Z,58.60
2023-04-15T12:47:16.743Z,58.33
2023-04-15T12:48:20.120Z,58.16
2023-04-15T12:49:23.652Z,58.26
2023-04-15T12:50:25.944Z,58.23
2023-04-15T12:51:28.258Z,58.08
2023-04-15T12:52:30.505Z,57.91
2023-04-15T12:53:32.762Z,57.84
2023-04-15T12:54:36.214Z,57.98
2023-04-15T12:55:38.729Z,57.96
2023-04-15T12:56:41.041Z,57.97
2023-04-15T12:57:43.667Z,58.07
2023-04-15T12:58:46.376Z,58.00
2023-04-15T12:59:48.848Z,58.13
2023-04-15T13:00:51.147Z,58.05
2023-04-15T13:01:54.434Z,58.18
2023-04-15T13:02:57.742Z,58.03
2023-04-15T13:04:01.124Z,58.13
2023-04-15T13:05:03.530Z,58.15
2023-04-15T13:06:06.313Z,58.16
2023-04-15T13:07:09.342Z,58.04
2023-04-15T13:08:12.856Z,58.00
2023-04-15T13:09:15.924Z,57.74
2023-04-15T13:10:18.348Z,57.65
2023-04-15T13:11:21.590Z,57.42
2023-04-15T13:12:25.109Z,57.67
2023-04-15T13:13:28.890Z,57.44
2023-04-15T13:14:31.589Z,57.57
2023-04-15T13:15:33.933Z,57.51
2023-04-15T13:16:36.389Z,57.52
2023-04-15T13:17:39.622Z,57.73
2023-04-15T13:18:42.306Z,57.70
2023-04-15T13:19:45.984Z,57.46
2023-04-15T13:20:48.822Z,57.41
2023-04-15T13:21:51.249Z,57.33
2023-04-15T13:22:53.893Z,57.37
2023-04-15T13:23:56.554Z,57.23
2023-04-15T13:24:58.855Z,57.08
2023-04-15T13:26:04.644Z,57.01
2023-04-15T13:27:08.629Z,57.08
2023-04-15T13:28:13.443Z,56.81
2023-04-15T13:29:16.154Z,56.87
2023-04-15T13:30:18.826Z,56.69
2023-04-15T13:31:22.229Z,56.74
2023-04-15T13:32:24.564Z,56.73
2023-04-15T13:33:27.375Z,56.94
2023-04-15T13:34:29.638Z,56.89
2023-04-15T13:35:32.889Z,56.90
2023-04-15T13:36:35.203Z,56.87
2023-04-15T13:37:37.471Z,56.73
2023-04-15T13:38:39.979Z,56.83
2023-04-15T13:39:42.249Z,56.84
2023-04-15T13:40:44.565Z,56.70
2023-04-15T13:41:48.685Z,56.79
2023-04-15T13:42:52.841Z,56.64
2023-04-15T13:43:55.074Z,56.61
2023-04-15T13:44:57.438Z,56.59
2023-04-15T13:45:59.849Z,56.59
2023-04-15T13:47:03.683Z,56.53
2023-04-15T13:48:06.191Z,56.68
2023-04-15T13:49:09.595Z,56.43